sensor_id;sensor_type;location;lat;lon;timestamp;P1;durP1;ratioP1;P2;durP2;ratioP2
16153;SDS011;8182;55.648;13.208;2023-11-21T00:00:12;11.83;;;9.73;;
16153;SDS011;8182;55.648;13.208;2023-11-21T00:02:41;13.30;;;9.40;;
16153;SDS011;8182;55.648;13.208;2023-11-21T00:05:10;13.77;;;9.40;;
16153;SDS011;8182;55.648;13.208;2023-11-21T00:07:39;12.00;;;9.53;;
16153;SDS011;8182;55.648;13.208;2023-11-21T00:10:07;13.23;;;9.83;;
16153;SDS011;8182;55.648;13.208;2023-11-21T00:12:35;11.80;;;9.50;;
16153;SDS011;8182;55.648;13.208;2023-11-21T00:15:02;14.83;;;9.93;;
16153;SDS011;8182;55.648;13.208;2023-11-21T00:17:34;12.37;;;9.30;;
16153;SDS011;8182;55.648;13.208;2023-11-21T00:20:03;13.70;;;10.43;;
16153;SDS011;8182;55.648;13.208;2023-11-21T00:22:37;12.53;;;9.03;;
16153;SDS011;8182;55.648;13.208;2023-11-21T00:25:05;12.30;;;9.60;;
16153;SDS011;8182;55.648;13.208;2023-11-21T00:27:36;11.40;;;9.30;;
16153;SDS011;8182;55.648;13.208;2023-11-21T00:30:04;11.93;;;9.13;;
16153;SDS011;8182;55.648;13.208;2023-11-21T00:32:32;11.23;;;9.30;;
16153;SDS011;8182;55.648;13.208;2023-11-21T00:34:59;13.43;;;9.37;;
16153;SDS011;8182;55.648;13.208;2023-11-21T00:37:27;13.27;;;9.23;;
16153;SDS011;8182;55.648;13.208;2023-11-21T00:39:54;12.23;;;9.47;;
16153;SDS011;8182;55.648;13.208;2023-11-21T00:42:21;14.50;;;9.70;;
16153;SDS011;8182;55.648;13.208;2023-11-21T00:44:48;13.37;;;10.00;;
16153;SDS011;8182;55.648;13.208;2023-11-21T00:47:15;12.20;;;9.67;;
16153;SDS011;8182;55.648;13.208;2023-11-21T00:49:42;13.00;;;9.50;;
16153;SDS011;8182;55.648;13.208;2023-11-21T00:52:09;13.47;;;10.50;;
16153;SDS011;8182;55.648;13.208;2023-11-21T00:54:37;11.37;;;8.60;;
16153;SDS011;8182;55.648;13.208;2023-11-21T00:57:04;11.47;;;9.53;;
16153;SDS011;8182;55.648;13.208;2023-11-21T00:59:33;12.93;;;10.23;;
16153;SDS011;8182;55.648;13.208;2023-11-21T01:02:00;12.97;;;10.30;;
16153;SDS011;8182;55.648;13.208;2023-11-21T01:04:27;13.60;;;9.93;;
16153;SDS011;8182;55.648;13.208;2023-11-21T01:06:54;13.40;;;10.13;;
16153;SDS011;8182;55.648;13.208;2023-11-21T01:09:22;12.77;;;9.93;;
16153;SDS011;8182;55.648;13.208;2023-11-21T01:11:53;14.80;;;9.63;;
16153;SDS011;8182;55.648;13.208;2023-11-21T01:14:19;11.73;;;9.00;;
16153;SDS011;8182;55.648;13.208;2023-11-21T01:16:46;12.30;;;9.23;;
16153;SDS011;8182;55.648;13.208;2023-11-21T01:19:14;12.93;;;9.50;;
16153;SDS011;8182;55.648;13.208;2023-11-21T01:21:40;13.13;;;9.70;;
16153;SDS011;8182;55.648;13.208;2023-11-21T01:24:07;13.10;;;9.33;;
16153;SDS011;8182;55.648;13.208;2023-11-21T01:26:35;11.50;;;9.30;;
16153;SDS011;8182;55.648;13.208;2023-11-21T01:29:03;11.87;;;9.47;;
16153;SDS011;8182;55.648;13.208;2023-11-21T01:31:30;12.87;;;9.23;;
16153;SDS011;8182;55.648;13.208;2023-11-21T01:33:57;11.63;;;9.20;;
16153;SDS011;8182;55.648;13.208;2023-11-21T01:36:29;12.43;;;9.50;;
16153;SDS011;8182;55.648;13.208;2023-11-21T01:38:57;11.40;;;9.07;;
16153;SDS011;8182;55.648;13.208;2023-11-21T01:41:27;11.77;;;9.10;;
16153;SDS011;8182;55.648;13.208;2023-11-21T01:43:55;12.33;;;8.93;;
16153;SDS011;8182;55.648;13.208;2023-11-21T01:46:24;11.90;;;9.20;;
16153;SDS011;8182;55.648;13.208;2023-11-21T01:48:52;10.37;;;8.40;;
16153;SDS011;8182;55.648;13.208;2023-11-21T01:51:20;10.73;;;9.03;;
16153;SDS011;8182;55.648;13.208;2023-11-21T01:53:47;11.83;;;9.33;;
16153;SDS011;8182;55.648;13.208;2023-11-21T01:56:14;12.13;;;8.87;;
16153;SDS011;8182;55.648;13.208;2023-11-21T01:58:41;12.17;;;8.73;;
16153;SDS011;8182;55.648;13.208;2023-11-21T02:01:09;11.03;;;8.90;;
16153;SDS011;8182;55.648;13.208;2023-11-21T02:03:38;11.37;;;8.53;;
16153;SDS011;8182;55.648;13.208;2023-11-21T02:06:05;9.63;;;8.43;;
16153;SDS011;8182;55.648;13.208;2023-11-21T02:08:33;11.17;;;8.93;;
16153;SDS011;8182;55.648;13.208;2023-11-21T02:11:00;10.20;;;8.40;;
16153;SDS011;8182;55.648;13.208;2023-11-21T02:13:27;10.20;;;8.20;;
16153;SDS011;8182;55.648;13.208;2023-11-21T02:15:54;10.43;;;8.60;;
16153;SDS011;8182;55.648;13.208;2023-11-21T02:18:21;11.80;;;8.77;;
16153;SDS011;8182;55.648;13.208;2023-11-21T02:20:50;10.97;;;9.23;;
16153;SDS011;8182;55.648;13.208;2023-11-21T02:23:18;10.77;;;8.53;;
16153;SDS011;8182;55.648;13.208;2023-11-21T02:25:45;11.53;;;8.70;;
16153;SDS011;8182;55.648;13.208;2023-11-21T02:28:12;9.80;;;7.97;;
16153;SDS011;8182;55.648;13.208;2023-11-21T02:30:40;12.27;;;8.53;;
16153;SDS011;8182;55.648;13.208;2023-11-21T02:33:08;12.23;;;8.63;;
16153;SDS011;8182;55.648;13.208;2023-11-21T02:35:35;10.47;;;8.43;;
16153;SDS011;8182;55.648;13.208;2023-11-21T02:38:03;12.97;;;8.73;;
16153;SDS011;8182;55.648;13.208;2023-11-21T02:40:32;11.43;;;8.20;;
16153;SDS011;8182;55.648;13.208;2023-11-21T02:42:59;12.63;;;8.33;;
16153;SDS011;8182;55.648;13.208;2023-11-21T02:45:31;11.10;;;8.20;;
16153;SDS011;8182;55.648;13.208;2023-11-21T02:47:58;12.40;;;8.37;;
16153;SDS011;8182;55.648;13.208;2023-11-21T02:50:25;11.10;;;8.40;;
16153;SDS011;8182;55.648;13.208;2023-11-21T02:52:52;11.37;;;8.50;;
16153;SDS011;8182;55.648;13.208;2023-11-21T02:55:19;9.80;;;8.10;;
16153;SDS011;8182;55.648;13.208;2023-11-21T02:57:48;9.80;;;8.13;;
16153;SDS011;8182;55.648;13.208;2023-11-21T03:00:16;10.77;;;7.87;;
16153;SDS011;8182;55.648;13.208;2023-11-21T03:02:43;11.93;;;8.50;;
16153;SDS011;8182;55.648;13.208;2023-11-21T03:05:12;11.90;;;8.37;;
16153;SDS011;8182;55.648;13.208;2023-11-21T03:07:39;11.53;;;8.20;;
16153;SDS011;8182;55.648;13.208;2023-11-21T03:10:07;9.93;;;7.93;;
16153;SDS011;8182;55.648;13.208;2023-11-21T03:12:36;11.37;;;8.27;;
16153;SDS011;8182;55.648;13.208;2023-11-21T03:15:07;10.53;;;8.03;;
16153;SDS011;8182;55.648;13.208;2023-11-21T03:17:35;9.93;;;7.60;;
16153;SDS011;8182;55.648;13.208;2023-11-21T03:20:02;10.47;;;8.07;;
16153;SDS011;8182;55.648;13.208;2023-11-21T03:22:29;9.73;;;8.13;;
16153;SDS011;8182;55.648;13.208;2023-11-21T03:24:56;10.67;;;7.93;;
16153;SDS011;8182;55.648;13.208;2023-11-21T03:27:23;10.33;;;7.97;;
16153;SDS011;8182;55.648;13.208;2023-11-21T03:29:50;11.50;;;8.60;;
16153;SDS011;8182;55.648;13.208;2023-11-21T03:32:18;12.20;;;8.40;;
16153;SDS011;8182;55.648;13.208;2023-11-21T03:34:54;10.90;;;7.97;;
16153;SDS011;8182;55.648;13.208;2023-11-21T03:37:22;10.87;;;8.50;;
16153;SDS011;8182;55.648;13.208;2023-11-21T03:39:49;10.47;;;8.13;;
16153;SDS011;8182;55.648;13.208;2023-11-21T03:42:16;11.90;;;8.30;;
16153;SDS011;8182;55.648;13.208;2023-11-21T03:44:43;12.17;;;8.43;;
16153;SDS011;8182;55.648;13.208;2023-11-21T03:47:10;10.63;;;7.87;;
16153;SDS011;8182;55.648;13.208;2023-11-21T03:49:39;11.70;;;8.60;;
16153;SDS011;8182;55.648;13.208;2023-11-21T03:52:05;11.17;;;7.80;;
16153;SDS011;8182;55.648;13.208;2023-11-21T03:54:34;8.77;;;7.80;;
16153;SDS011;8182;55.648;13.208;2023-11-21T03:57:01;10.17;;;8.07;;
16153;SDS011;8182;55.648;13.208;2023-11-21T03:59:28;11.70;;;8.30;;
16153;SDS011;8182;55.648;13.208;2023-11-21T04:01:55;8.77;;;7.67;;
16153;SDS011;8182;55.648;13.208;2023-11-21T04:04:23;9.57;;;7.67;;
16153;SDS011;8182;55.648;13.208;2023-11-21T04:06:51;12.00;;;8.23;;
16153;SDS011;8182;55.648;13.208;2023-11-21T04:09:18;9.93;;;7.57;;
16153;SDS011;8182;55.648;13.208;2023-11-21T04:11:46;11.50;;;7.77;;
16153;SDS011;8182;55.648;13.208;2023-11-21T04:14:13;11.03;;;7.90;;
16153;SDS011;8182;55.648;13.208;2023-11-21T04:16:40;9.43;;;7.70;;
16153;SDS011;8182;55.648;13.208;2023-11-21T04:19:07;10.47;;;8.23;;
16153;SDS011;8182;55.648;13.208;2023-11-21T04:21:35;9.63;;;8.00;;
16153;SDS011;8182;55.648;13.208;2023-11-21T04:24:04;10.50;;;7.77;;
16153;SDS011;8182;55.648;13.208;2023-11-21T04:26:31;9.53;;;7.93;;
16153;SDS011;8182;55.648;13.208;2023-11-21T04:28:58;10.77;;;7.63;;
16153;SDS011;8182;55.648;13.208;2023-11-21T04:31:25;9.60;;;7.53;;
16153;SDS011;8182;55.648;13.208;2023-11-21T04:33:52;9.73;;;7.60;;
16153;SDS011;8182;55.648;13.208;2023-11-21T04:36:19;10.20;;;7.80;;
16153;SDS011;8182;55.648;13.208;2023-11-21T04:38:46;12.10;;;8.20;;
16153;SDS011;8182;55.648;13.208;2023-11-21T04:41:14;9.00;;;6.67;;
16153;SDS011;8182;55.648;13.208;2023-11-21T04:43:44;10.20;;;7.57;;
16153;SDS011;8182;55.648;13.208;2023-11-21T04:46:11;9.83;;;7.60;;
16153;SDS011;8182;55.648;13.208;2023-11-21T04:48:38;9.37;;;7.43;;
16153;SDS011;8182;55.648;13.208;2023-11-21T04:51:05;9.70;;;7.70;;
16153;SDS011;8182;55.648;13.208;2023-11-21T04:53:32;10.00;;;7.67;;
16153;SDS011;8182;55.648;13.208;2023-11-21T04:55:59;9.13;;;7.37;;
16153;SDS011;8182;55.648;13.208;2023-11-21T04:58:28;10.00;;;7.47;;
16153;SDS011;8182;55.648;13.208;2023-11-21T05:00:55;10.27;;;7.60;;
16153;SDS011;8182;55.648;13.208;2023-11-21T05:03:22;10.27;;;8.10;;
16153;SDS011;8182;55.648;13.208;2023-11-21T05:05:49;10.80;;;7.90;;
16153;SDS011;8182;55.648;13.208;2023-11-21T05:08:16;11.77;;;8.10;;
16153;SDS011;8182;55.648;13.208;2023-11-21T05:10:45;9.87;;;7.60;;
16153;SDS011;8182;55.648;13.208;2023-11-21T05:13:13;9.80;;;7.33;;
16153;SDS011;8182;55.648;13.208;2023-11-21T05:15:43;10.77;;;8.07;;
16153;SDS011;8182;55.648;13.208;2023-11-21T05:18:10;10.33;;;7.80;;
16153;SDS011;8182;55.648;13.208;2023-11-21T05:20:39;10.87;;;7.37;;
16153;SDS011;8182;55.648;13.208;2023-11-21T05:23:06;10.67;;;7.33;;
16153;SDS011;8182;55.648;13.208;2023-11-21T05:25:33;8.87;;;7.43;;
16153;SDS011;8182;55.648;13.208;2023-11-21T05:28:01;10.87;;;7.43;;
16153;SDS011;8182;55.648;13.208;2023-11-21T05:30:29;10.10;;;7.47;;
16153;SDS011;8182;55.648;13.208;2023-11-21T05:32:57;10.30;;;7.30;;
16153;SDS011;8182;55.648;13.208;2023-11-21T05:35:24;8.93;;;7.40;;
16153;SDS011;8182;55.648;13.208;2023-11-21T05:37:51;10.53;;;7.43;;
16153;SDS011;8182;55.648;13.208;2023-11-21T05:40:19;10.47;;;7.67;;
16153;SDS011;8182;55.648;13.208;2023-11-21T05:42:47;9.97;;;7.20;;
16153;SDS011;8182;55.648;13.208;2023-11-21T05:45:14;11.80;;;7.57;;
16153;SDS011;8182;55.648;13.208;2023-11-21T05:47:44;11.80;;;6.83;;
16153;SDS011;8182;55.648;13.208;2023-11-21T05:50:14;8.90;;;6.77;;
16153;SDS011;8182;55.648;13.208;2023-11-21T05:52:42;8.13;;;6.73;;
16153;SDS011;8182;55.648;13.208;2023-11-21T05:55:09;8.60;;;7.20;;
16153;SDS011;8182;55.648;13.208;2023-11-21T05:57:37;11.30;;;7.00;;
16153;SDS011;8182;55.648;13.208;2023-11-21T06:00:05;10.23;;;7.47;;
16153;SDS011;8182;55.648;13.208;2023-11-21T06:02:37;9.60;;;6.90;;
16153;SDS011;8182;55.648;13.208;2023-11-21T06:05:04;8.90;;;7.20;;
16153;SDS011;8182;55.648;13.208;2023-11-21T06:07:33;10.93;;;7.17;;
16153;SDS011;8182;55.648;13.208;2023-11-21T06:10:01;10.07;;;7.40;;
16153;SDS011;8182;55.648;13.208;2023-11-21T06:12:31;11.43;;;7.27;;
16153;SDS011;8182;55.648;13.208;2023-11-21T06:15:00;10.27;;;6.90;;
16153;SDS011;8182;55.648;13.208;2023-11-21T06:17:29;8.33;;;6.33;;
16153;SDS011;8182;55.648;13.208;2023-11-21T06:19:56;8.43;;;7.07;;
16153;SDS011;8182;55.648;13.208;2023-11-21T06:22:22;10.90;;;6.90;;
16153;SDS011;8182;55.648;13.208;2023-11-21T06:24:51;9.30;;;6.47;;
16153;SDS011;8182;55.648;13.208;2023-11-21T06:27:18;8.40;;;6.80;;
16153;SDS011;8182;55.648;13.208;2023-11-21T06:29:46;8.43;;;6.57;;
16153;SDS011;8182;55.648;13.208;2023-11-21T06:32:13;9.77;;;6.37;;
16153;SDS011;8182;55.648;13.208;2023-11-21T06:34:41;9.73;;;6.30;;
16153;SDS011;8182;55.648;13.208;2023-11-21T06:37:08;8.70;;;6.37;;
16153;SDS011;8182;55.648;13.208;2023-11-21T06:39:36;8.37;;;6.80;;
16153;SDS011;8182;55.648;13.208;2023-11-21T06:42:05;7.33;;;5.40;;
16153;SDS011;8182;55.648;13.208;2023-11-21T06:44:32;9.30;;;5.97;;
16153;SDS011;8182;55.648;13.208;2023-11-21T06:47:00;9.77;;;6.70;;
16153;SDS011;8182;55.648;13.208;2023-11-21T06:49:27;8.90;;;6.43;;
16153;SDS011;8182;55.648;13.208;2023-11-21T06:51:54;10.33;;;6.77;;
16153;SDS011;8182;55.648;13.208;2023-11-21T06:54:24;9.97;;;6.20;;
16153;SDS011;8182;55.648;13.208;2023-11-21T06:56:54;11.17;;;6.43;;
16153;SDS011;8182;55.648;13.208;2023-11-21T06:59:23;7.97;;;6.30;;
16153;SDS011;8182;55.648;13.208;2023-11-21T07:01:50;8.40;;;6.13;;
16153;SDS011;8182;55.648;13.208;2023-11-21T07:04:16;9.13;;;6.50;;
16153;SDS011;8182;55.648;13.208;2023-11-21T07:06:43;10.70;;;6.33;;
16153;SDS011;8182;55.648;13.208;2023-11-21T07:09:10;9.93;;;6.60;;
16153;SDS011;8182;55.648;13.208;2023-11-21T07:11:37;8.67;;;6.10;;
16153;SDS011;8182;55.648;13.208;2023-11-21T07:14:08;8.13;;;6.27;;
16153;SDS011;8182;55.648;13.208;2023-11-21T07:16:36;9.33;;;6.10;;
16153;SDS011;8182;55.648;13.208;2023-11-21T07:19:03;10.27;;;6.90;;
16153;SDS011;8182;55.648;13.208;2023-11-21T07:21:31;8.87;;;6.50;;
16153;SDS011;8182;55.648;13.208;2023-11-21T07:23:58;10.23;;;6.63;;
16153;SDS011;8182;55.648;13.208;2023-11-21T07:26:26;10.17;;;6.27;;
16153;SDS011;8182;55.648;13.208;2023-11-21T07:28:52;8.43;;;6.73;;
16153;SDS011;8182;55.648;13.208;2023-11-21T07:31:20;9.57;;;5.90;;
16153;SDS011;8182;55.648;13.208;2023-11-21T07:33:51;9.30;;;6.17;;
16153;SDS011;8182;55.648;13.208;2023-11-21T07:36:18;8.03;;;6.00;;
16153;SDS011;8182;55.648;13.208;2023-11-21T07:38:45;8.13;;;6.03;;
16153;SDS011;8182;55.648;13.208;2023-11-21T07:41:12;8.07;;;5.93;;
16153;SDS011;8182;55.648;13.208;2023-11-21T07:43:40;7.40;;;5.27;;
16153;SDS011;8182;55.648;13.208;2023-11-21T07:46:07;8.97;;;6.00;;
16153;SDS011;8182;55.648;13.208;2023-11-21T07:48:34;6.63;;;5.30;;
16153;SDS011;8182;55.648;13.208;2023-11-21T07:51:03;7.77;;;5.87;;
16153;SDS011;8182;55.648;13.208;2023-11-21T07:53:29;8.23;;;5.97;;
16153;SDS011;8182;55.648;13.208;2023-11-21T07:55:57;6.90;;;5.47;;
16153;SDS011;8182;55.648;13.208;2023-11-21T07:58:24;9.13;;;5.83;;
16153;SDS011;8182;55.648;13.208;2023-11-21T08:00:55;6.63;;;5.30;;
16153;SDS011;8182;55.648;13.208;2023-11-21T08:03:22;8.00;;;5.47;;
16153;SDS011;8182;55.648;13.208;2023-11-21T08:05:48;7.40;;;5.23;;
16153;SDS011;8182;55.648;13.208;2023-11-21T08:08:17;7.10;;;5.70;;
16153;SDS011;8182;55.648;13.208;2023-11-21T08:10:44;7.80;;;5.40;;
16153;SDS011;8182;55.648;13.208;2023-11-21T08:13:21;6.67;;;5.27;;
16153;SDS011;8182;55.648;13.208;2023-11-21T08:15:48;5.17;;;4.67;;
16153;SDS011;8182;55.648;13.208;2023-11-21T08:18:15;9.13;;;5.10;;
16153;SDS011;8182;55.648;13.208;2023-11-21T08:20:43;7.70;;;5.30;;
16153;SDS011;8182;55.648;13.208;2023-11-21T08:23:13;6.93;;;5.03;;
16153;SDS011;8182;55.648;13.208;2023-11-21T08:25:45;6.90;;;5.10;;
16153;SDS011;8182;55.648;13.208;2023-11-21T08:28:13;7.90;;;4.73;;
16153;SDS011;8182;55.648;13.208;2023-11-21T08:30:41;5.93;;;5.03;;
16153;SDS011;8182;55.648;13.208;2023-11-21T08:33:09;6.43;;;5.17;;
16153;SDS011;8182;55.648;13.208;2023-11-21T08:35:37;7.47;;;4.73;;
16153;SDS011;8182;55.648;13.208;2023-11-21T08:38:04;5.93;;;4.70;;
16153;SDS011;8182;55.648;13.208;2023-11-21T08:40:31;5.80;;;4.70;;
16153;SDS011;8182;55.648;13.208;2023-11-21T08:42:59;6.03;;;5.00;;
16153;SDS011;8182;55.648;13.208;2023-11-21T08:45:28;7.00;;;4.80;;
16153;SDS011;8182;55.648;13.208;2023-11-21T08:47:55;6.60;;;4.80;;
16153;SDS011;8182;55.648;13.208;2023-11-21T08:50:22;5.53;;;4.87;;
16153;SDS011;8182;55.648;13.208;2023-11-21T08:52:49;4.80;;;4.20;;
16153;SDS011;8182;55.648;13.208;2023-11-21T08:55:16;7.73;;;4.67;;
16153;SDS011;8182;55.648;13.208;2023-11-21T08:57:45;5.50;;;4.60;;
16153;SDS011;8182;55.648;13.208;2023-11-21T09:00:14;4.63;;;4.13;;
16153;SDS011;8182;55.648;13.208;2023-11-21T09:02:42;4.30;;;3.83;;
16153;SDS011;8182;55.648;13.208;2023-11-21T09:05:10;6.63;;;4.53;;
16153;SDS011;8182;55.648;13.208;2023-11-21T09:07:38;5.53;;;4.70;;
16153;SDS011;8182;55.648;13.208;2023-11-21T09:10:07;4.97;;;4.20;;
16153;SDS011;8182;55.648;13.208;2023-11-21T09:12:35;5.63;;;4.37;;
16153;SDS011;8182;55.648;13.208;2023-11-21T09:15:03;5.03;;;3.83;;
16153;SDS011;8182;55.648;13.208;2023-11-21T09:17:33;5.40;;;4.17;;
16153;SDS011;8182;55.648;13.208;2023-11-21T09:20:05;5.27;;;4.43;;
16153;SDS011;8182;55.648;13.208;2023-11-21T09:22:35;6.40;;;4.67;;
16153;SDS011;8182;55.648;13.208;2023-11-21T09:25:04;5.63;;;4.23;;
16153;SDS011;8182;55.648;13.208;2023-11-21T09:27:33;5.33;;;4.00;;
16153;SDS011;8182;55.648;13.208;2023-11-21T09:30:00;5.47;;;3.97;;
16153;SDS011;8182;55.648;13.208;2023-11-21T09:32:30;4.77;;;4.17;;
16153;SDS011;8182;55.648;13.208;2023-11-21T09:34:58;5.17;;;4.03;;
16153;SDS011;8182;55.648;13.208;2023-11-21T09:37:27;5.10;;;4.33;;
16153;SDS011;8182;55.648;13.208;2023-11-21T09:39:54;5.17;;;4.17;;
16153;SDS011;8182;55.648;13.208;2023-11-21T09:42:22;5.60;;;4.40;;
16153;SDS011;8182;55.648;13.208;2023-11-21T09:44:54;5.30;;;4.43;;
16153;SDS011;8182;55.648;13.208;2023-11-21T09:47:28;6.30;;;4.40;;
16153;SDS011;8182;55.648;13.208;2023-11-21T09:49:56;5.20;;;4.17;;
16153;SDS011;8182;55.648;13.208;2023-11-21T09:52:28;9.60;;;4.40;;
16153;SDS011;8182;55.648;13.208;2023-11-21T09:54:57;5.30;;;3.97;;
16153;SDS011;8182;55.648;13.208;2023-11-21T09:57:25;4.90;;;3.80;;
16153;SDS011;8182;55.648;13.208;2023-11-21T09:59:54;5.17;;;4.07;;
16153;SDS011;8182;55.648;13.208;2023-11-21T10:02:24;5.00;;;4.23;;
16153;SDS011;8182;55.648;13.208;2023-11-21T10:04:55;4.63;;;4.10;;
16153;SDS011;8182;55.648;13.208;2023-11-21T10:07:24;5.10;;;3.90;;
16153;SDS011;8182;55.648;13.208;2023-11-21T10:09:54;3.90;;;3.50;;
16153;SDS011;8182;55.648;13.208;2023-11-21T10:12:21;4.60;;;3.90;;
16153;SDS011;8182;55.648;13.208;2023-11-21T10:14:51;5.57;;;3.53;;
16153;SDS011;8182;55.648;13.208;2023-11-21T10:17:21;4.77;;;3.57;;
16153;SDS011;8182;55.648;13.208;2023-11-21T10:19:51;5.50;;;3.80;;
16153;SDS011;8182;55.648;13.208;2023-11-21T10:22:21;4.20;;;3.53;;
16153;SDS011;8182;55.648;13.208;2023-11-21T10:24:48;4.17;;;3.57;;
16153;SDS011;8182;55.648;13.208;2023-11-21T10:27:16;3.97;;;3.13;;
16153;SDS011;8182;55.648;13.208;2023-11-21T10:29:43;6.50;;;3.57;;
16153;SDS011;8182;55.648;13.208;2023-11-21T10:32:11;4.43;;;3.80;;
16153;SDS011;8182;55.648;13.208;2023-11-21T10:34:38;5.23;;;3.80;;
16153;SDS011;8182;55.648;13.208;2023-11-21T10:37:10;3.83;;;3.43;;
16153;SDS011;8182;55.648;13.208;2023-11-21T10:39:38;4.97;;;3.77;;
16153;SDS011;8182;55.648;13.208;2023-11-21T10:42:07;5.53;;;3.53;;
16153;SDS011;8182;55.648;13.208;2023-11-21T10:44:36;3.60;;;3.30;;
16153;SDS011;8182;55.648;13.208;2023-11-21T10:47:03;4.83;;;3.57;;
16153;SDS011;8182;55.648;13.208;2023-11-21T10:49:31;5.90;;;3.90;;
16153;SDS011;8182;55.648;13.208;2023-11-21T10:51:57;3.43;;;3.13;;
16153;SDS011;8182;55.648;13.208;2023-11-21T10:54:24;4.60;;;2.83;;
16153;SDS011;8182;55.648;13.208;2023-11-21T10:56:53;3.70;;;3.00;;
16153;SDS011;8182;55.648;13.208;2023-11-21T10:59:23;3.50;;;3.07;;
16153;SDS011;8182;55.648;13.208;2023-11-21T11:01:58;3.63;;;2.93;;
16153;SDS011;8182;55.648;13.208;2023-11-21T11:04:27;3.70;;;2.87;;
16153;SDS011;8182;55.648;13.208;2023-11-21T11:06:54;4.23;;;3.43;;
16153;SDS011;8182;55.648;13.208;2023-11-21T11:09:23;3.93;;;2.70;;
16153;SDS011;8182;55.648;13.208;2023-11-21T11:11:50;4.70;;;3.40;;
16153;SDS011;8182;55.648;13.208;2023-11-21T11:14:19;4.80;;;3.43;;
16153;SDS011;8182;55.648;13.208;2023-11-21T11:16:50;3.27;;;2.80;;
16153;SDS011;8182;55.648;13.208;2023-11-21T11:19:21;3.77;;;2.37;;
16153;SDS011;8182;55.648;13.208;2023-11-21T11:21:51;3.10;;;2.67;;
16153;SDS011;8182;55.648;13.208;2023-11-21T11:27:27;3.93;;;3.53;;
16153;SDS011;8182;55.648;13.208;2023-11-21T11:30:04;3.60;;;2.67;;
16153;SDS011;8182;55.648;13.208;2023-11-21T11:32:40;3.53;;;2.50;;
16153;SDS011;8182;55.648;13.208;2023-11-21T11:35:19;4.23;;;3.20;;
16153;SDS011;8182;55.648;13.208;2023-11-21T11:37:52;4.13;;;3.50;;
16153;SDS011;8182;55.648;13.208;2023-11-21T11:40:20;5.70;;;3.90;;
16153;SDS011;8182;55.648;13.208;2023-11-21T11:42:55;5.67;;;4.00;;
16153;SDS011;8182;55.648;13.208;2023-11-21T11:45:24;5.37;;;4.07;;
16153;SDS011;8182;55.648;13.208;2023-11-21T11:47:58;4.17;;;3.60;;
16153;SDS011;8182;55.648;13.208;2023-11-21T11:50:27;4.30;;;3.23;;
16153;SDS011;8182;55.648;13.208;2023-11-21T11:52:55;4.63;;;3.53;;
16153;SDS011;8182;55.648;13.208;2023-11-21T11:55:37;4.77;;;3.83;;
16153;SDS011;8182;55.648;13.208;2023-11-21T11:58:05;4.60;;;4.00;;
16153;SDS011;8182;55.648;13.208;2023-11-21T12:00:33;5.57;;;3.80;;
16153;SDS011;8182;55.648;13.208;2023-11-21T12:03:02;6.37;;;4.30;;
16153;SDS011;8182;55.648;13.208;2023-11-21T12:05:38;4.50;;;3.87;;
16153;SDS011;8182;55.648;13.208;2023-11-21T12:08:09;4.93;;;4.00;;
16153;SDS011;8182;55.648;13.208;2023-11-21T12:10:38;6.70;;;3.97;;
16153;SDS011;8182;55.648;13.208;2023-11-21T12:13:06;4.53;;;3.37;;
16153;SDS011;8182;55.648;13.208;2023-11-21T12:15:35;5.23;;;3.50;;
16153;SDS011;8182;55.648;13.208;2023-11-21T12:18:03;5.70;;;4.03;;
16153;SDS011;8182;55.648;13.208;2023-11-21T12:20:32;3.87;;;3.47;;
16153;SDS011;8182;55.648;13.208;2023-11-21T12:23:03;7.37;;;3.93;;
16153;SDS011;8182;55.648;13.208;2023-11-21T12:25:31;4.20;;;3.40;;
16153;SDS011;8182;55.648;13.208;2023-11-21T12:27:59;4.80;;;3.90;;
16153;SDS011;8182;55.648;13.208;2023-11-21T12:30:28;4.10;;;3.70;;
16153;SDS011;8182;55.648;13.208;2023-11-21T12:32:57;4.23;;;3.53;;
16153;SDS011;8182;55.648;13.208;2023-11-21T12:35:25;4.83;;;3.67;;
16153;SDS011;8182;55.648;13.208;2023-11-21T12:37:55;5.93;;;3.70;;
16153;SDS011;8182;55.648;13.208;2023-11-21T12:40:23;5.10;;;3.70;;
16153;SDS011;8182;55.648;13.208;2023-11-21T12:42:51;5.90;;;4.00;;
16153;SDS011;8182;55.648;13.208;2023-11-21T12:45:21;6.43;;;4.10;;
16153;SDS011;8182;55.648;13.208;2023-11-21T12:47:51;6.33;;;4.53;;
16153;SDS011;8182;55.648;13.208;2023-11-21T12:50:21;4.93;;;3.37;;
16153;SDS011;8182;55.648;13.208;2023-11-21T12:52:58;6.17;;;3.90;;
16153;SDS011;8182;55.648;13.208;2023-11-21T12:55:29;3.80;;;3.30;;
16153;SDS011;8182;55.648;13.208;2023-11-21T12:57:57;3.70;;;3.40;;
16153;SDS011;8182;55.648;13.208;2023-11-21T13:00:31;5.00;;;3.77;;
16153;SDS011;8182;55.648;13.208;2023-11-21T13:03:02;5.00;;;3.30;;
16153;SDS011;8182;55.648;13.208;2023-11-21T13:05:33;6.67;;;3.10;;
16153;SDS011;8182;55.648;13.208;2023-11-21T13:08:05;7.30;;;3.77;;
16153;SDS011;8182;55.648;13.208;2023-11-21T13:10:35;4.23;;;3.17;;
16153;SDS011;8182;55.648;13.208;2023-11-21T13:13:04;5.00;;;3.20;;
16153;SDS011;8182;55.648;13.208;2023-11-21T13:15:34;3.80;;;3.10;;
16153;SDS011;8182;55.648;13.208;2023-11-21T13:18:01;3.57;;;3.10;;
16153;SDS011;8182;55.648;13.208;2023-11-21T13:20:29;3.57;;;3.10;;
16153;SDS011;8182;55.648;13.208;2023-11-21T13:22:57;3.53;;;3.23;;
16153;SDS011;8182;55.648;13.208;2023-11-21T13:25:27;4.30;;;3.40;;
16153;SDS011;8182;55.648;13.208;2023-11-21T13:27:56;4.20;;;3.33;;
16153;SDS011;8182;55.648;13.208;2023-11-21T13:30:26;3.97;;;3.33;;
16153;SDS011;8182;55.648;13.208;2023-11-21T13:32:58;3.90;;;3.50;;
16153;SDS011;8182;55.648;13.208;2023-11-21T13:35:27;4.70;;;3.50;;
16153;SDS011;8182;55.648;13.208;2023-11-21T13:38:02;3.97;;;3.50;;
16153;SDS011;8182;55.648;13.208;2023-11-21T13:40:33;4.77;;;3.37;;
16153;SDS011;8182;55.648;13.208;2023-11-21T13:43:07;3.77;;;3.17;;
16153;SDS011;8182;55.648;13.208;2023-11-21T13:45:35;3.63;;;3.30;;
16153;SDS011;8182;55.648;13.208;2023-11-21T13:48:02;4.53;;;3.37;;
16153;SDS011;8182;55.648;13.208;2023-11-21T13:50:31;5.17;;;3.50;;
16153;SDS011;8182;55.648;13.208;2023-11-21T13:52:59;4.57;;;3.27;;
16153;SDS011;8182;55.648;13.208;2023-11-21T13:55:30;4.07;;;3.60;;
16153;SDS011;8182;55.648;13.208;2023-11-21T13:58:00;3.93;;;3.03;;
16153;SDS011;8182;55.648;13.208;2023-11-21T14:00:29;3.93;;;3.53;;
16153;SDS011;8182;55.648;13.208;2023-11-21T14:03:10;5.53;;;3.93;;
16153;SDS011;8182;55.648;13.208;2023-11-21T14:05:45;4.37;;;3.73;;
16153;SDS011;8182;55.648;13.208;2023-11-21T14:08:16;3.97;;;3.57;;
16153;SDS011;8182;55.648;13.208;2023-11-21T14:10:46;4.43;;;3.90;;
16153;SDS011;8182;55.648;13.208;2023-11-21T14:13:20;4.90;;;4.00;;
16153;SDS011;8182;55.648;13.208;2023-11-21T14:15:48;4.27;;;3.70;;
16153;SDS011;8182;55.648;13.208;2023-11-21T14:18:17;4.50;;;3.77;;
16153;SDS011;8182;55.648;13.208;2023-11-21T14:20:52;4.60;;;3.73;;
16153;SDS011;8182;55.648;13.208;2023-11-21T14:23:19;4.90;;;3.73;;
16153;SDS011;8182;55.648;13.208;2023-11-21T14:25:49;4.47;;;3.90;;
16153;SDS011;8182;55.648;13.208;2023-11-21T14:28:17;4.00;;;3.60;;
16153;SDS011;8182;55.648;13.208;2023-11-21T14:30:44;5.33;;;3.37;;
16153;SDS011;8182;55.648;13.208;2023-11-21T14:33:11;5.30;;;3.90;;
16153;SDS011;8182;55.648;13.208;2023-11-21T14:35:38;5.63;;;3.73;;
16153;SDS011;8182;55.648;13.208;2023-11-21T14:38:05;5.10;;;3.83;;
16153;SDS011;8182;55.648;13.208;2023-11-21T14:40:32;4.53;;;4.10;;
16153;SDS011;8182;55.648;13.208;2023-11-21T14:43:02;5.33;;;3.90;;
16153;SDS011;8182;55.648;13.208;2023-11-21T14:45:30;5.10;;;3.77;;
16153;SDS011;8182;55.648;13.208;2023-11-21T14:47:58;6.17;;;4.30;;
16153;SDS011;8182;55.648;13.208;2023-11-21T14:50:31;4.67;;;3.73;;
16153;SDS011;8182;55.648;13.208;2023-11-21T14:53:15;7.47;;;3.70;;